sensor_id;sensor_type;location;lat;lon;timestamp;P1;durP1;ratioP1;P2;durP2;ratioP2
1306;SDS011;646;48.696;9.114;2023-03-12T00:00:17;2.63;;;2.13;;
1306;SDS011;646;48.696;9.114;2023-03-12T00:02:42;2.78;;;2.58;;
1306;SDS011;646;48.696;9.114;2023-03-12T00:05:08;3.07;;;2.00;;
1306;SDS011;646;48.696;9.114;2023-03-12T00:07:34;2.20;;;2.10;;
1306;SDS011;646;48.696;9.114;2023-03-12T00:10:00;2.35;;;2.08;;
1306;SDS011;646;48.696;9.114;2023-03-12T00:12:27;2.28;;;1.98;;
1306;SDS011;646;48.696;9.114;2023-03-12T00:14:52;1.70;;;1.60;;
1306;SDS011;646;48.696;9.114;2023-03-12T00:17:18;2.53;;;1.70;;
1306;SDS011;646;48.696;9.114;2023-03-12T00:19:43;2.07;;;1.97;;
1306;SDS011;646;48.696;9.114;2023-03-12T00:22:09;3.73;;;2.17;;
1306;SDS011;646;48.696;9.114;2023-03-12T00:24:34;2.40;;;2.20;;
1306;SDS011;646;48.696;9.114;2023-03-12T00:27:00;2.40;;;2.23;;
1306;SDS011;646;48.696;9.114;2023-03-12T00:29:25;2.30;;;2.00;;
1306;SDS011;646;48.696;9.114;2023-03-12T00:31:51;4.67;;;3.10;;
1306;SDS011;646;48.696;9.114;2023-03-12T00:34:17;2.27;;;2.07;;
1306;SDS011;646;48.696;9.114;2023-03-12T00:36:42;3.03;;;2.30;;
1306;SDS011;646;48.696;9.114;2023-03-12T00:39:08;4.00;;;2.63;;
1306;SDS011;646;48.696;9.114;2023-03-12T00:41:34;6.35;;;3.25;;
1306;SDS011;646;48.696;9.114;2023-03-12T00:44:00;3.50;;;3.07;;
1306;SDS011;646;48.696;9.114;2023-03-12T00:46:25;8.13;;;3.30;;
1306;SDS011;646;48.696;9.114;2023-03-12T00:48:51;4.50;;;3.40;;
1306;SDS011;646;48.696;9.114;2023-03-12T00:51:17;7.77;;;4.03;;
1306;SDS011;646;48.696;9.114;2023-03-12T00:53:42;7.77;;;5.00;;
1306;SDS011;646;48.696;9.114;2023-03-12T00:56:08;5.53;;;4.40;;
1306;SDS011;646;48.696;9.114;2023-03-12T00:58:34;7.40;;;4.43;;
1306;SDS011;646;48.696;9.114;2023-03-12T01:00:59;4.40;;;3.57;;
1306;SDS011;646;48.696;9.114;2023-03-12T01:03:25;4.70;;;3.33;;
1306;SDS011;646;48.696;9.114;2023-03-12T01:05:50;4.20;;;3.47;;
1306;SDS011;646;48.696;9.114;2023-03-12T01:08:19;3.75;;;3.33;;
1306;SDS011;646;48.696;9.114;2023-03-12T01:10:46;3.38;;;2.40;;
1306;SDS011;646;48.696;9.114;2023-03-12T01:13:11;2.90;;;2.70;;
1306;SDS011;646;48.696;9.114;2023-03-12T01:15:37;5.70;;;3.10;;
1306;SDS011;646;48.696;9.114;2023-03-12T01:18:02;3.10;;;2.60;;
1306;SDS011;646;48.696;9.114;2023-03-12T01:20:28;4.00;;;3.17;;
1306;SDS011;646;48.696;9.114;2023-03-12T01:22:53;4.90;;;3.03;;
1306;SDS011;646;48.696;9.114;2023-03-12T01:25:19;2.60;;;2.40;;
1306;SDS011;646;48.696;9.114;2023-03-12T01:27:44;2.87;;;2.67;;
1306;SDS011;646;48.696;9.114;2023-03-12T01:30:10;2.73;;;2.50;;
1306;SDS011;646;48.696;9.114;2023-03-12T01:32:36;4.20;;;2.90;;
1306;SDS011;646;48.696;9.114;2023-03-12T01:35:02;3.30;;;3.00;;
1306;SDS011;646;48.696;9.114;2023-03-12T01:37:27;3.30;;;3.00;;
1306;SDS011;646;48.696;9.114;2023-03-12T01:39:53;3.60;;;3.30;;
1306;SDS011;646;48.696;9.114;2023-03-12T01:42:18;3.20;;;2.80;;
1306;SDS011;646;48.696;9.114;2023-03-12T01:44:48;4.17;;;3.10;;
1306;SDS011;646;48.696;9.114;2023-03-12T01:47:19;3.30;;;3.00;;
1306;SDS011;646;48.696;9.114;2023-03-12T01:49:45;3.70;;;3.30;;
1306;SDS011;646;48.696;9.114;2023-03-12T01:52:31;4.18;;;3.80;;
1306;SDS011;646;48.696;9.114;2023-03-12T01:57:35;4.28;;;3.75;;
1306;SDS011;646;48.696;9.114;2023-03-12T02:00:10;3.92;;;3.63;;
1306;SDS011;646;48.696;9.114;2023-03-12T02:02:38;4.32;;;3.90;;
1306;SDS011;646;48.696;9.114;2023-03-12T02:05:06;4.18;;;3.75;;
1306;SDS011;646;48.696;9.114;2023-03-12T02:07:37;4.03;;;3.42;;
1306;SDS011;646;48.696;9.114;2023-03-12T02:10:03;4.13;;;3.70;;
1306;SDS011;646;48.696;9.114;2023-03-12T02:12:29;4.40;;;4.00;;
1306;SDS011;646;48.696;9.114;2023-03-12T02:14:54;4.20;;;3.90;;
1306;SDS011;646;48.696;9.114;2023-03-12T02:17:20;7.40;;;4.20;;
1306;SDS011;646;48.696;9.114;2023-03-12T02:22:15;4.38;;;3.53;;
1306;SDS011;646;48.696;9.114;2023-03-12T02:24:56;4.25;;;3.35;;
1306;SDS011;646;48.696;9.114;2023-03-12T02:27:41;3.92;;;3.50;;
1306;SDS011;646;48.696;9.114;2023-03-12T02:30:08;3.80;;;3.50;;
1306;SDS011;646;48.696;9.114;2023-03-12T02:32:35;4.13;;;3.75;;
1306;SDS011;646;48.696;9.114;2023-03-12T02:35:03;4.20;;;3.85;;
1306;SDS011;646;48.696;9.114;2023-03-12T02:37:29;7.50;;;3.70;;
1306;SDS011;646;48.696;9.114;2023-03-12T02:39:58;5.70;;;3.93;;
1306;SDS011;646;48.696;9.114;2023-03-12T02:42:42;10.57;;;4.47;;
1306;SDS011;646;48.696;9.114;2023-03-12T02:45:09;5.07;;;4.28;;
1306;SDS011;646;48.696;9.114;2023-03-12T02:47:35;3.97;;;3.60;;
1306;SDS011;646;48.696;9.114;2023-03-12T02:50:00;7.60;;;4.30;;
1306;SDS011;646;48.696;9.114;2023-03-12T02:52:26;5.03;;;4.27;;
1306;SDS011;646;48.696;9.114;2023-03-12T02:54:51;7.10;;;4.40;;
1306;SDS011;646;48.696;9.114;2023-03-12T02:57:17;4.80;;;4.40;;
1306;SDS011;646;48.696;9.114;2023-03-12T02:59:42;4.70;;;4.30;;
1306;SDS011;646;48.696;9.114;2023-03-12T03:02:08;4.20;;;3.87;;
1306;SDS011;646;48.696;9.114;2023-03-12T03:04:33;4.47;;;4.03;;
1306;SDS011;646;48.696;9.114;2023-03-12T03:06:59;4.70;;;4.07;;
1306;SDS011;646;48.696;9.114;2023-03-12T03:09:25;5.20;;;4.20;;
1306;SDS011;646;48.696;9.114;2023-03-12T03:11:51;5.43;;;4.25;;
1306;SDS011;646;48.696;9.114;2023-03-12T03:14:16;4.60;;;3.90;;
1306;SDS011;646;48.696;9.114;2023-03-12T03:16:42;4.63;;;4.22;;
1306;SDS011;646;48.696;9.114;2023-03-12T03:19:08;6.03;;;4.37;;
1306;SDS011;646;48.696;9.114;2023-03-12T03:21:35;5.85;;;4.35;;
1306;SDS011;646;48.696;9.114;2023-03-12T03:24:01;10.15;;;5.65;;
1306;SDS011;646;48.696;9.114;2023-03-12T03:26:27;6.40;;;5.80;;
1306;SDS011;646;48.696;9.114;2023-03-12T03:28:52;6.90;;;6.13;;
1306;SDS011;646;48.696;9.114;2023-03-12T03:31:18;6.20;;;5.23;;
1306;SDS011;646;48.696;9.114;2023-03-12T03:33:44;4.33;;;3.93;;
1306;SDS011;646;48.696;9.114;2023-03-12T03:36:10;4.82;;;4.35;;
1306;SDS011;646;48.696;9.114;2023-03-12T03:38:38;4.13;;;3.67;;
1306;SDS011;646;48.696;9.114;2023-03-12T03:41:04;4.43;;;3.87;;
1306;SDS011;646;48.696;9.114;2023-03-12T03:43:29;5.33;;;4.83;;
1306;SDS011;646;48.696;9.114;2023-03-12T03:45:58;6.10;;;5.17;;
1306;SDS011;646;48.696;9.114;2023-03-12T03:48:25;5.68;;;4.20;;
1306;SDS011;646;48.696;9.114;2023-03-12T03:50:51;5.53;;;5.03;;
1306;SDS011;646;48.696;9.114;2023-03-12T03:53:17;4.57;;;4.07;;
1306;SDS011;646;48.696;9.114;2023-03-12T03:55:46;5.00;;;4.20;;
1306;SDS011;646;48.696;9.114;2023-03-12T03:58:12;5.22;;;4.30;;
1306;SDS011;646;48.696;9.114;2023-03-12T04:00:38;6.50;;;4.00;;
1306;SDS011;646;48.696;9.114;2023-03-12T04:03:03;4.10;;;3.63;;
1306;SDS011;646;48.696;9.114;2023-03-12T04:05:29;4.80;;;4.20;;
1306;SDS011;646;48.696;9.114;2023-03-12T04:07:55;7.45;;;4.55;;
1306;SDS011;646;48.696;9.114;2023-03-12T04:10:26;8.63;;;4.60;;
1306;SDS011;646;48.696;9.114;2023-03-12T04:12:53;4.40;;;4.00;;
1306;SDS011;646;48.696;9.114;2023-03-12T04:15:19;4.20;;;3.80;;
1306;SDS011;646;48.696;9.114;2023-03-12T04:17:45;4.47;;;4.03;;
1306;SDS011;646;48.696;9.114;2023-03-12T04:20:10;3.83;;;3.53;;
1306;SDS011;646;48.696;9.114;2023-03-12T04:22:36;5.03;;;4.20;;
1306;SDS011;646;48.696;9.114;2023-03-12T04:25:02;6.20;;;4.10;;
1306;SDS011;646;48.696;9.114;2023-03-12T04:27:28;5.25;;;4.75;;
1306;SDS011;646;48.696;9.114;2023-03-12T04:29:53;4.87;;;4.47;;
1306;SDS011;646;48.696;9.114;2023-03-12T04:32:19;5.03;;;4.60;;
1306;SDS011;646;48.696;9.114;2023-03-12T04:34:45;5.07;;;3.80;;
1306;SDS011;646;48.696;9.114;2023-03-12T04:37:10;4.20;;;3.90;;
1306;SDS011;646;48.696;9.114;2023-03-12T04:39:38;4.28;;;3.45;;
1306;SDS011;646;48.696;9.114;2023-03-12T04:42:04;4.40;;;3.97;;
1306;SDS011;646;48.696;9.114;2023-03-12T04:44:30;4.90;;;4.40;;
1306;SDS011;646;48.696;9.114;2023-03-12T04:46:56;4.67;;;3.80;;
1306;SDS011;646;48.696;9.114;2023-03-12T04:49:21;5.97;;;3.80;;
1306;SDS011;646;48.696;9.114;2023-03-12T04:51:47;5.70;;;4.67;;
1306;SDS011;646;48.696;9.114;2023-03-12T04:54:12;4.17;;;3.77;;
1306;SDS011;646;48.696;9.114;2023-03-12T04:56:38;4.60;;;4.20;;
1306;SDS011;646;48.696;9.114;2023-03-12T04:59:04;4.63;;;4.23;;
1306;SDS011;646;48.696;9.114;2023-03-12T05:01:31;7.27;;;4.73;;
1306;SDS011;646;48.696;9.114;2023-03-12T05:03:58;4.43;;;3.75;;
1306;SDS011;646;48.696;9.114;2023-03-12T05:06:24;5.50;;;3.80;;
1306;SDS011;646;48.696;9.114;2023-03-12T05:08:50;8.50;;;4.75;;
1306;SDS011;646;48.696;9.114;2023-03-12T05:11:16;4.85;;;3.80;;
1306;SDS011;646;48.696;9.114;2023-03-12T05:13:42;4.85;;;4.35;;
1306;SDS011;646;48.696;9.114;2023-03-12T05:16:08;4.87;;;3.70;;
1306;SDS011;646;48.696;9.114;2023-03-12T05:18:35;4.57;;;4.18;;
1306;SDS011;646;48.696;9.114;2023-03-12T05:21:01;4.40;;;3.93;;
1306;SDS011;646;48.696;9.114;2023-03-12T05:23:29;4.22;;;3.85;;
1306;SDS011;646;48.696;9.114;2023-03-12T05:25:55;4.93;;;4.47;;
1306;SDS011;646;48.696;9.114;2023-03-12T05:28:21;3.87;;;3.57;;
1306;SDS011;646;48.696;9.114;2023-03-12T05:30:51;5.15;;;4.10;;
1306;SDS011;646;48.696;9.114;2023-03-12T05:33:21;5.25;;;4.10;;
1306;SDS011;646;48.696;9.114;2023-03-12T05:35:46;7.60;;;4.30;;
1306;SDS011;646;48.696;9.114;2023-03-12T05:38:12;5.00;;;4.50;;
1306;SDS011;646;48.696;9.114;2023-03-12T05:40:38;5.10;;;3.87;;
1306;SDS011;646;48.696;9.114;2023-03-12T05:43:03;3.70;;;3.40;;
1306;SDS011;646;48.696;9.114;2023-03-12T05:45:29;6.67;;;4.43;;
1306;SDS011;646;48.696;9.114;2023-03-12T05:47:54;3.93;;;3.63;;
1306;SDS011;646;48.696;9.114;2023-03-12T05:50:22;6.90;;;4.88;;
1306;SDS011;646;48.696;9.114;2023-03-12T05:52:47;5.43;;;3.60;;
1306;SDS011;646;48.696;9.114;2023-03-12T05:55:13;4.23;;;3.93;;
1306;SDS011;646;48.696;9.114;2023-03-12T05:57:38;6.07;;;4.20;;
1306;SDS011;646;48.696;9.114;2023-03-12T06:00:04;4.70;;;4.20;;
1306;SDS011;646;48.696;9.114;2023-03-12T06:02:30;4.78;;;3.90;;
1306;SDS011;646;48.696;9.114;2023-03-12T06:04:56;5.93;;;4.50;;
1306;SDS011;646;48.696;9.114;2023-03-12T06:07:22;7.32;;;4.80;;
1306;SDS011;646;48.696;9.114;2023-03-12T06:09:48;6.23;;;4.67;;
1306;SDS011;646;48.696;9.114;2023-03-12T06:12:13;6.97;;;4.80;;
1306;SDS011;646;48.696;9.114;2023-03-12T06:14:39;5.83;;;5.33;;
1306;SDS011;646;48.696;9.114;2023-03-12T06:17:04;7.10;;;6.07;;
1306;SDS011;646;48.696;9.114;2023-03-12T06:19:30;6.67;;;6.07;;
1306;SDS011;646;48.696;9.114;2023-03-12T06:21:55;7.37;;;6.70;;
1306;SDS011;646;48.696;9.114;2023-03-12T06:24:21;6.60;;;5.63;;
1306;SDS011;646;48.696;9.114;2023-03-12T06:26:47;5.30;;;4.80;;
1306;SDS011;646;48.696;9.114;2023-03-12T06:29:12;8.20;;;5.33;;
1306;SDS011;646;48.696;9.114;2023-03-12T06:31:38;5.73;;;5.13;;
1306;SDS011;646;48.696;9.114;2023-03-12T06:34:06;7.88;;;6.25;;
1306;SDS011;646;48.696;9.114;2023-03-12T06:36:32;8.32;;;5.25;;
1306;SDS011;646;48.696;9.114;2023-03-12T06:38:58;6.78;;;5.55;;
1306;SDS011;646;48.696;9.114;2023-03-12T06:41:23;8.00;;;5.00;;
1306;SDS011;646;48.696;9.114;2023-03-12T06:43:49;7.27;;;4.50;;
1306;SDS011;646;48.696;9.114;2023-03-12T06:46:16;6.57;;;5.80;;
1306;SDS011;646;48.696;9.114;2023-03-12T06:48:45;6.82;;;6.22;;
1306;SDS011;646;48.696;9.114;2023-03-12T06:51:11;7.87;;;6.80;;
1306;SDS011;646;48.696;9.114;2023-03-12T06:53:38;7.00;;;6.35;;
1306;SDS011;646;48.696;9.114;2023-03-12T06:56:04;7.83;;;6.30;;
1306;SDS011;646;48.696;9.114;2023-03-12T06:58:30;8.80;;;7.45;;
1306;SDS011;646;48.696;9.114;2023-03-12T07:00:56;7.37;;;6.13;;
1306;SDS011;646;48.696;9.114;2023-03-12T07:03:22;8.50;;;5.97;;
1306;SDS011;646;48.696;9.114;2023-03-12T07:05:48;7.10;;;5.50;;
1306;SDS011;646;48.696;9.114;2023-03-12T07:08:15;6.55;;;5.97;;
1306;SDS011;646;48.696;9.114;2023-03-12T07:10:41;8.48;;;5.68;;
1306;SDS011;646;48.696;9.114;2023-03-12T07:13:06;7.60;;;6.33;;
1306;SDS011;646;48.696;9.114;2023-03-12T07:15:32;10.50;;;8.43;;
1306;SDS011;646;48.696;9.114;2023-03-12T07:17:59;10.87;;;8.20;;
1306;SDS011;646;48.696;9.114;2023-03-12T07:20:25;6.78;;;6.13;;
1306;SDS011;646;48.696;9.114;2023-03-12T07:22:50;6.53;;;5.87;;
1306;SDS011;646;48.696;9.114;2023-03-12T07:25:16;6.97;;;6.00;;
1306;SDS011;646;48.696;9.114;2023-03-12T07:27:41;5.80;;;5.27;;
1306;SDS011;646;48.696;9.114;2023-03-12T07:30:07;5.63;;;5.13;;
1306;SDS011;646;48.696;9.114;2023-03-12T07:32:33;4.78;;;4.28;;
1306;SDS011;646;48.696;9.114;2023-03-12T07:35:00;13.57;;;12.02;;
1306;SDS011;646;48.696;9.114;2023-03-12T07:37:26;10.98;;;8.68;;
1306;SDS011;646;48.696;9.114;2023-03-12T07:39:52;6.50;;;5.90;;
1306;SDS011;646;48.696;9.114;2023-03-12T07:42:18;11.75;;;10.27;;
1306;SDS011;646;48.696;9.114;2023-03-12T07:44:44;15.20;;;13.70;;
1306;SDS011;646;48.696;9.114;2023-03-12T07:47:09;11.93;;;10.30;;
1306;SDS011;646;48.696;9.114;2023-03-12T07:49:35;9.53;;;8.60;;
1306;SDS011;646;48.696;9.114;2023-03-12T07:52:00;13.73;;;11.63;;
1306;SDS011;646;48.696;9.114;2023-03-12T07:54:26;12.13;;;10.93;;
1306;SDS011;646;48.696;9.114;2023-03-12T07:56:55;12.20;;;10.77;;
1306;SDS011;646;48.696;9.114;2023-03-12T07:59:21;12.43;;;11.32;;
1306;SDS011;646;48.696;9.114;2023-03-12T08:01:47;10.50;;;9.50;;
1306;SDS011;646;48.696;9.114;2023-03-12T08:04:13;8.83;;;7.90;;
1306;SDS011;646;48.696;9.114;2023-03-12T08:06:38;8.90;;;8.10;;
1306;SDS011;646;48.696;9.114;2023-03-12T08:09:06;10.00;;;9.05;;
1306;SDS011;646;48.696;9.114;2023-03-12T08:11:32;9.77;;;6.20;;
1306;SDS011;646;48.696;9.114;2023-03-12T08:13:58;11.00;;;7.23;;
1306;SDS011;646;48.696;9.114;2023-03-12T08:16:24;7.10;;;6.50;;
1306;SDS011;646;48.696;9.114;2023-03-12T08:18:49;9.20;;;8.50;;
1306;SDS011;646;48.696;9.114;2023-03-12T08:21:15;11.20;;;10.20;;
1306;SDS011;646;48.696;9.114;2023-03-12T08:23:40;8.87;;;8.00;;
1306;SDS011;646;48.696;9.114;2023-03-12T08:26:06;13.40;;;12.03;;
1306;SDS011;646;48.696;9.114;2023-03-12T08:28:32;6.10;;;5.33;;
1306;SDS011;646;48.696;9.114;2023-03-12T08:30:58;5.40;;;4.87;;
1306;SDS011;646;48.696;9.114;2023-03-12T08:33:24;12.60;;;11.30;;
1306;SDS011;646;48.696;9.114;2023-03-12T08:35:50;6.03;;;5.43;;
1306;SDS011;646;48.696;9.114;2023-03-12T08:38:16;7.57;;;6.57;;
1306;SDS011;646;48.696;9.114;2023-03-12T08:40:41;6.20;;;5.40;;
1306;SDS011;646;48.696;9.114;2023-03-12T08:43:07;6.60;;;5.40;;
1306;SDS011;646;48.696;9.114;2023-03-12T08:45:33;7.93;;;6.43;;
1306;SDS011;646;48.696;9.114;2023-03-12T08:48:00;14.30;;;12.50;;
1306;SDS011;646;48.696;9.114;2023-03-12T08:50:26;9.93;;;8.93;;
1306;SDS011;646;48.696;9.114;2023-03-12T08:52:53;7.10;;;6.40;;
1306;SDS011;646;48.696;9.114;2023-03-12T08:55:19;6.90;;;6.25;;
1306;SDS011;646;48.696;9.114;2023-03-12T08:57:45;5.03;;;4.60;;
1306;SDS011;646;48.696;9.114;2023-03-12T09:00:12;6.72;;;5.80;;
1306;SDS011;646;48.696;9.114;2023-03-12T09:02:40;6.68;;;5.30;;
1306;SDS011;646;48.696;9.114;2023-03-12T09:05:08;6.00;;;4.78;;
1306;SDS011;646;48.696;9.114;2023-03-12T09:07:33;6.50;;;5.90;;
1306;SDS011;646;48.696;9.114;2023-03-12T09:09:59;6.93;;;6.23;;
1306;SDS011;646;48.696;9.114;2023-03-12T09:12:24;8.23;;;7.43;;
1306;SDS011;646;48.696;9.114;2023-03-12T09:14:50;6.53;;;5.60;;
1306;SDS011;646;48.696;9.114;2023-03-12T09:17:16;7.65;;;6.80;;
1306;SDS011;646;48.696;9.114;2023-03-12T09:19:42;7.50;;;6.70;;
1306;SDS011;646;48.696;9.114;2023-03-12T09:22:07;6.50;;;5.90;;
1306;SDS011;646;48.696;9.114;2023-03-12T09:24:33;7.60;;;6.87;;
1306;SDS011;646;48.696;9.114;2023-03-12T09:26:58;7.17;;;6.47;;
1306;SDS011;646;48.696;9.114;2023-03-12T09:29:24;8.48;;;7.63;;
1306;SDS011;646;48.696;9.114;2023-03-12T09:31:50;9.10;;;7.10;;
1306;SDS011;646;48.696;9.114;2023-03-12T09:34:16;7.93;;;6.87;;
1306;SDS011;646;48.696;9.114;2023-03-12T09:36:41;7.17;;;6.47;;
1306;SDS011;646;48.696;9.114;2023-03-12T09:39:07;8.43;;;6.50;;
1306;SDS011;646;48.696;9.114;2023-03-12T09:41:34;6.67;;;6.07;;
1306;SDS011;646;48.696;9.114;2023-03-12T09:46:39;6.72;;;6.03;;
1306;SDS011;646;48.696;9.114;2023-03-12T09:49:20;5.97;;;5.07;;
1306;SDS011;646;48.696;9.114;2023-03-12T09:51:54;6.57;;;5.97;;
1306;SDS011;646;48.696;9.114;2023-03-12T09:54:33;6.72;;;6.13;;
1306;SDS011;646;48.696;9.114;2023-03-12T09:57:08;7.82;;;5.15;;
1306;SDS011;646;48.696;9.114;2023-03-12T09:59:38;6.65;;;6.13;;
1306;SDS011;646;48.696;9.114;2023-03-12T10:02:05;5.67;;;4.97;;
1306;SDS011;646;48.696;9.114;2023-03-12T10:04:54;5.00;;;4.60;;
1306;SDS011;646;48.696;9.114;2023-03-12T10:07:31;5.78;;;5.28;;
1306;SDS011;646;48.696;9.114;2023-03-12T10:10:11;5.65;;;4.93;;
1306;SDS011;646;48.696;9.114;2023-03-12T10:17:57;6.63;;;6.03;;
1306;SDS011;646;48.696;9.114;2023-03-12T10:20:40;4.57;;;4.15;;
1306;SDS011;646;48.696;9.114;2023-03-12T10:26:24;7.10;;;4.57;;
1306;SDS011;646;48.696;9.114;2023-03-12T10:28:59;4.60;;;4.20;;
1306;SDS011;646;48.696;9.114;2023-03-12T10:31:31;4.00;;;3.45;;
1306;SDS011;646;48.696;9.114;2023-03-12T10:34:01;2.85;;;2.55;;
1306;SDS011;646;48.696;9.114;2023-03-12T10:36:37;2.42;;;2.22;;
1306;SDS011;646;48.696;9.114;2023-03-12T10:39:05;1.77;;;1.67;;
1306;SDS011;646;48.696;9.114;2023-03-12T10:41:40;1.40;;;1.30;;
1306;SDS011;646;48.696;9.114;2023-03-12T10:44:07;1.60;;;1.50;;
1306;SDS011;646;48.696;9.114;2023-03-12T10:46:44;2.20;;;1.90;;
1306;SDS011;646;48.696;9.114;2023-03-12T10:49:33;1.58;;;1.48;;
1306;SDS011;646;48.696;9.114;2023-03-12T10:52:14;1.60;;;1.50;;
1306;SDS011;646;48.696;9.114;2023-03-12T10:54:41;1.67;;;1.58;;
1306;SDS011;646;48.696;9.114;2023-03-12T10:57:09;1.30;;;1.20;;
1306;SDS011;646;48.696;9.114;2023-03-12T10:59:37;1.60;;;1.50;;
1306;SDS011;646;48.696;9.114;2023-03-12T11:02:26;1.53;;;1.43;;
1306;SDS011;646;48.696;9.114;2023-03-12T11:04:56;1.10;;;1.03;;
1306;SDS011;646;48.696;9.114;2023-03-12T11:07:29;1.70;;;1.60;;
1306;SDS011;646;48.696;9.114;2023-03-12T11:12:31;1.73;;;1.37;;
1306;SDS011;646;48.696;9.114;2023-03-12T11:15:00;1.20;;;1.20;;
1306;SDS011;646;48.696;9.114;2023-03-12T11:17:49;1.33;;;1.23;;
1306;SDS011;646;48.696;9.114;2023-03-12T11:22:54;1.57;;;1.47;;
1306;SDS011;646;48.696;9.114;2023-03-12T11:25:24;1.50;;;1.40;;
1306;SDS011;646;48.696;9.114;2023-03-12T11:27:52;1.10;;;1.10;;
1306;SDS011;646;48.696;9.114;2023-03-12T11:30:25;1.60;;;1.50;;
1306;SDS011;646;48.696;9.114;2023-03-12T11:32:56;2.47;;;1.00;;
1306;SDS011;646;48.696;9.114;2023-03-12T11:38:27;0.87;;;0.87;;
1306;SDS011;646;48.696;9.114;2023-03-12T11:41:10;1.80;;;1.23;;
1306;SDS011;646;48.696;9.114;2023-03-12T11:46:39;1.57;;;1.47;;
1306;SDS011;646;48.696;9.114;2023-03-12T11:52:37;2.63;;;2.43;;
1306;SDS011;646;48.696;9.114;2023-03-12T11:57:48;1.33;;;1.23;;
1306;SDS011;646;48.696;9.114;2023-03-12T12:00:31;2.77;;;2.00;;
1306;SDS011;646;48.696;9.114;2023-03-12T12:09:00;1.50;;;1.40;;
1306;SDS011;646;48.696;9.114;2023-03-12T12:14:04;3.47;;;2.07;;
1306;SDS011;646;48.696;9.114;2023-03-12T12:22:41;3.10;;;2.00;;
1306;SDS011;646;48.696;9.114;2023-03-12T12:25:43;4.60;;;4.20;;
1306;SDS011;646;48.696;9.114;2023-03-12T12:36:26;3.80;;;2.63;;
1306;SDS011;646;48.696;9.114;2023-03-12T12:39:00;1.90;;;1.70;;
1306;SDS011;646;48.696;9.114;2023-03-12T12:41:44;1.30;;;1.30;;
1306;SDS011;646;48.696;9.114;2023-03-12T12:44:19;1.87;;;1.50;;
1306;SDS011;646;48.696;9.114;2023-03-12T12:46:51;3.03;;;2.43;;
1306;SDS011;646;48.696;9.114;2023-03-12T12:49:25;2.47;;;1.30;;
1306;SDS011;646;48.696;9.114;2023-03-12T12:52:01;3.33;;;1.87;;
1306;SDS011;646;48.696;9.114;2023-03-12T12:54:36;5.77;;;4.80;;
1306;SDS011;646;48.696;9.114;2023-03-12T12:57:20;6.47;;;2.87;;
1306;SDS011;646;48.696;9.114;2023-03-12T13:02:29;1.57;;;1.47;;
1306;SDS011;646;48.696;9.114;2023-03-12T13:04:58;6.00;;;2.33;;
1306;SDS011;646;48.696;9.114;2023-03-12T13:09:51;2.77;;;1.60;;
1306;SDS011;646;48.696;9.114;2023-03-12T13:20:19;3.27;;;1.30;;
1306;SDS011;646;48.696;9.114;2023-03-12T13:25:33;1.63;;;1.47;;
1306;SDS011;646;48.696;9.114;2023-03-12T13:33:43;4.90;;;1.60;;
1306;SDS011;646;48.696;9.114;2023-03-12T13:41:34;1.97;;;1.40;;
1306;SDS011;646;48.696;9.114;2023-03-12T13:44:21;2.93;;;1.33;;
1306;SDS011;646;48.696;9.114;2023-03-12T13:57:45;2.17;;;2.07;;
1306;SDS011;646;48.696;9.114;2023-03-12T14:02:52;2.20;;;1.10;;
1306;SDS011;646;48.696;9.114;2023-03-12T14:05:21;2.37;;;1.27;;
1306;SDS011;646;48.696;9.114;2023-03-12T14:08:05;2.03;;;1.83;;
1306;SDS011;646;48.696;9.114;2023-03-12T14:13:28;3.57;;;1.50;;
1306;SDS011;646;48.696;9.114;2023-03-12T14:16:13;5.20;;;2.40;;
1306;SDS011;646;48.696;9.114;2023-03-12T14:18:54;2.07;;;1.70;;
1306;SDS011;646;48.696;9.114;2023-03-12T14:21:20;1.30;;;1.17;;
1306;SDS011;646;48.696;9.114;2023-03-12T14:23:48;1.30;;;1.20;;
1306;SDS011;646;48.696;9.114;2023-03-12T14:26:22;3.40;;;1.63;;
1306;SDS011;646;48.696;9.114;2023-03-12T14:28:56;2.07;;;1.53;;
1306;SDS011;646;48.696;9.114;2023-03-12T14:31:22;1.77;;;1.67;;
1306;SDS011;646;48.696;9.114;2023-03-12T14:33:55;2.90;;;1.33;;
1306;SDS011;646;48.696;9.114;2023-03-12T14:37:08;2.47;;;1.50;;
1306;SDS011;646;48.696;9.114;2023-03-12T14:42:26;1.90;;;1.47;;
1306;SDS011;646;48.696;9.114;2023-03-12T14:44:56;1.13;;;0.93;;
1306;SDS011;646;48.696;9.114;2023-03-12T14:47:23;2.17;;;1.60;;
1306;SDS011;646;48.696;9.114;2023-03-12T14:49:49;1.47;;;1.37;;
1306;SDS011;646;48.696;9.114;2023-03-12T14:52:26;1.73;;;1.63;;
1306;SDS011;646;48.696;9.114;2023-03-12T14:55:05;1.53;;;1.43;;
1306;SDS011;646;48.696;9.114;2023-03-12T14:57:36;4.20;;;1.70;;
1306;SDS011;646;48.696;9.114;2023-03-12T15:00:05;3.10;;;2.10;;
1306;SDS011;646;48.696;9.114;2023-03-12T15:02:40;6.73;;;5.53;;
1306;SDS011;646;48.696;9.114;2023-03-12T15:05:14;1.50;;;1.40;;
1306;SDS011;646;48.696;9.114;2023-03-12T15:07:42;1.97;;;1.87;;
1306;SDS011;646;48.696;9.114;2023-03-12T15:10:16;1.90;;;1.20;;
1306;SDS011;646;48.696;9.114;2023-03-12T15:12:50;2.93;;;1.47;;
1306;SDS011;646;48.696;9.114;2023-03-12T15:15:38;2.60;;;1.50;;
1306;SDS011;646;48.696;9.114;2023-03-12T15:18:07;1.63;;;1.40;;
1306;SDS011;646;48.696;9.114;2023-03-12T15:20:39;3.80;;;2.30;;
1306;SDS011;646;48.696;9.114;2023-03-12T15:23:05;3.03;;;1.50;;
1306;SDS011;646;48.696;9.114;2023-03-12T15:25:34;2.73;;;1.57;;
1306;SDS011;646;48.696;9.114;2023-03-12T15:28:00;2.90;;;1.77;;
1306;SDS011;646;48.696;9.114;2023-03-12T15:30:39;4.37;;;1.73;;
1306;SDS011;646;48.696;9.114;2023-03-12T15:33:09;7.83;;;6.13;;
1306;SDS011;646;48.696;9.114;2023-03-12T15:35:42;5.10;;;2.00;;
1306;SDS011;646;48.696;9.114;2023-03-12T15:38:26;8.03;;;5.00;;
1306;SDS011;646;48.696;9.114;2023-03-12T15:40:52;4.53;;;2.67;;
1306;SDS011;646;48.696;9.114;2023-03-12T15:43:21;4.53;;;3.10;;
1306;SDS011;646;48.696;9.114;2023-03-12T15:45:55;3.60;;;2.90;;
1306;SDS011;646;48.696;9.114;2023-03-12T15:48:27;3.10;;;1.93;;
1306;SDS011;646;48.696;9.114;2023-03-12T15:50:56;2.70;;;2.07;;
1306;SDS011;646;48.696;9.114;2023-03-12T15:53:26;7.53;;;3.87;;
1306;SDS011;646;48.696;9.114;2023-03-12T15:55:57;8.83;;;4.30;;
1306;SDS011;646;48.696;9.114;2023-03-12T15:58:34;3.90;;;2.63;;
1306;SDS011;646;48.696;9.114;2023-03-12T16:01:08;4.90;;;1.87;;
1306;SDS011;646;48.696;9.114;2023-03-12T16:03:47;7.00;;;3.90;;
1306;SDS011;646;48.696;9.114;2023-03-12T16:06:14;4.90;;;3.47;;
1306;SDS011;646;48.696;9.114;2023-03-12T16:08:43;8.87;;;5.40;;
1306;SDS011;646;48.696;9.114;2023-03-12T16:11:14;8.53;;;6.67;;
1306;SDS011;646;48.696;9.114;2023-03-12T16:13:42;10.30;;;6.60;;
1306;SDS011;646;48.696;9.114;2023-03-12T16:16:10;2.73;;;2.30;;
1306;SDS011;646;48.696;9.114;2023-03-12T16:18:37;8.37;;;5.50;;
1306;SDS011;646;48.696;9.114;2023-03-12T16:21:03;5.20;;;2.77;;
1306;SDS011;646;48.696;9.114;2023-03-12T16:23:28;8.80;;;4.63;;
1306;SDS011;646;48.696;9.114;2023-03-12T16:25:54;2.90;;;1.93;;
1306;SDS011;646;48.696;9.114;2023-03-12T16:28:21;1.93;;;1.70;;
1306;SDS011;646;48.696;9.114;2023-03-12T16:30:48;4.60;;;1.50;;
1306;SDS011;646;48.696;9.114;2023-03-12T16:33:14;4.00;;;2.90;;
1306;SDS011;646;48.696;9.114;2023-03-12T16:35:41;2.40;;;1.80;;
1306;SDS011;646;48.696;9.114;2023-03-12T16:38:07;2.33;;;1.40;;
1306;SDS011;646;48.696;9.114;2023-03-12T16:40:33;4.00;;;1.93;;
1306;SDS011;646;48.696;9.114;2023-03-12T16:43:02;3.40;;;1.50;;
1306;SDS011;646;48.696;9.114;2023-03-12T16:45:30;5.67;;;2.30;;
1306;SDS011;646;48.696;9.114;2023-03-12T16:48:00;3.60;;;1.87;;
1306;SDS011;646;48.696;9.114;2023-03-12T16:50:27;2.63;;;1.43;;
1306;SDS011;646;48.696;9.114;2023-03-12T16:52:53;5.00;;;2.53;;
1306;SDS011;646;48.696;9.114;2023-03-12T16:55:19;4.30;;;2.07;;
1306;SDS011;646;48.696;9.114;2023-03-12T16:57:47;11.10;;;8.17;;
1306;SDS011;646;48.696;9.114;2023-03-12T17:00:20;4.63;;;2.40;;
1306;SDS011;646;48.696;9.114;2023-03-12T17:02:47;3.37;;;1.60;;
1306;SDS011;646;48.696;9.114;2023-03-12T17:05:14;4.53;;;2.53;;
1306;SDS011;646;48.696;9.114;2023-03-12T17:07:40;2.33;;;1.70;;
1306;SDS011;646;48.696;9.114;2023-03-12T17:10:06;5.83;;;3.00;;
1306;SDS011;646;48.696;9.114;2023-03-12T17:12:34;3.00;;;2.40;;
1306;SDS011;646;48.696;9.114;2023-03-12T17:15:07;3.30;;;2.00;;
1306;SDS011;646;48.696;9.114;2023-03-12T17:17:39;2.38;;;1.80;;
1306;SDS011;646;48.696;9.114;2023-03-12T17:20:05;4.43;;;1.90;;